Аэропорт
Владивосток (UHWW)

 UHWW / VVO
ЗЦ Хабаровск
Хабаровск (UHHH)
Хабаровск (UHHH)
 43.39900, 132.14800  / 46 ft

 UHWW 232330Z 00000MPS 9999 SCT033 M12/M19 Q1029 R25L/0///70 NOSIG RMK QFE771
 TAF UHWW 231400Z 2315/2415 36003MPS 5000 -SHSN HZ BKN020CB TEMPO 2315/2322 3100 -SHSN BKN013CB FM232200 34003MPS 9999 BKN030CB TEMPO 2322/2410 350008G13MPS 5000 -SHSN BKN017CB
UHWW_aip_1709
показать схемы
Название сценария Тип сценария Flight Simulator 9 Flight Simulator X Prepar3D v2 Prepar3D v3 xPlane
UHWW, Vladivostok 1.0.0 X-Flight бесплатный
UHWW, Vladivostok 2017 v 1.2 бесплатный
uhww-scenery-fs9-1408 бесплатный
uhww-scenery-fsx-1304 бесплатный
uhww-scenery-p3d-1502 бесплатный



2017 © VATRUS division